Time;durP1;ratioP1;P1;durP2;ratioP2;P2;SDS_P1;SDS_P2;PMS_P1;PMS_P2;Temp;Humidity;BMP_temperature;BMP_pressure;BME280_temperature;BME280_humidity;BME280_pressure;Samples;Min_cycle;Max_cycle;Signal;HPM_P1;HPM_P2
2022/10/30 00:01:36;;;;;;;11.50;7.70;;;;;;;13.07;86.52;99271.90;107055;1285;22142;-61
2022/10/30 00:04:03;;;;;;;17.20;8.50;;;;;;;13.07;86.59;99270.48;107064;1300;23369;-61
2022/10/30 00:06:30;;;;;;;18.80;8.70;;;;;;;13.07;86.52;99270.42;107063;1300;22227;-61
2022/10/30 00:08:57;;;;;;;13.80;7.70;;;;;;;13.08;86.46;99269.60;107067;1299;22170;-60
2022/10/30 00:11:24;;;;;;;13.90;8.10;;;;;;;13.08;86.31;99272.77;107056;1300;22226;-60
2022/10/30 00:13:50;;;;;;;11.30;7.70;;;;;;;13.08;86.19;99276.05;107058;1300;22235;-61
2022/10/30 00:16:17;;;;;;;14.00;7.20;;;;;;;13.08;86.10;99278.79;107045;1300;22128;-61
2022/10/30 00:18:44;;;;;;;14.00;8.00;;;;;;;13.08;85.96;99280.98;107083;1300;22238;-61
2022/10/30 00:21:12;;;;;;;22.80;7.20;;;;;;;13.08;85.84;99281.52;107075;1285;22145;-61
2022/10/30 00:23:44;;;;;;;12.10;6.40;;;;;;;13.08;85.54;99286.72;107135;1297;22187;-61
2022/10/30 00:26:11;;;;;;;15.20;7.10;;;;;;;13.08;85.20;99287.48;107100;1291;22139;-61
2022/10/30 00:28:37;;;;;;;11.90;7.60;;;;;;;13.07;84.82;99286.77;107061;1299;22204;-62
2022/10/30 00:31:04;;;;;;;12.50;6.60;;;;;;;13.09;84.58;99287.33;107013;1293;22149;-61
2022/10/30 00:33:31;;;;;;;13.60;6.80;;;;;;;13.09;84.46;99283.21;106983;1292;22220;-61
2022/10/30 00:35:58;;;;;;;9.20;6.90;;;;;;;13.09;84.31;99274.13;105557;1293;22590;-61
2022/10/30 00:38:25;;;;;;;13.60;7.00;;;;;;;13.09;84.14;99275.45;102853;1283;24194;-61
2022/10/30 00:40:52;;;;;;;13.70;7.20;;;;;;;13.08;84.10;99274.03;102867;1292;25429;-61
2022/10/30 00:43:35;;;;;;;11.50;6.60;;;;;;;13.08;84.06;99277.75;102848;1307;25483;-60
2022/10/30 00:46:34;;;;;;;13.40;6.40;;;;;;;13.07;83.81;99273.87;102755;1281;25252;-61
2022/10/30 00:49:03;;;;;;;9.70;6.50;;;;;;;13.07;83.78;99267.08;106837;1307;22138;-61
2022/10/30 00:51:30;;;;;;;13.40;6.10;;;;;;;13.05;83.57;99264.73;106999;1285;22128;-62
2022/10/30 00:53:57;;;;;;;11.00;6.60;;;;;;;13.04;83.38;99259.38;107031;1291;22128;-61
2022/10/30 00:56:24;;;;;;;9.50;6.60;;;;;;;13.03;83.33;99265.39;107097;1300;22119;-62
2022/10/30 00:58:54;;;;;;;11.70;6.30;;;;;;;13.04;83.11;99266.54;107052;1299;22879;-62
2022/10/30 01:01:23;;;;;;;14.10;6.50;;;;;;;13.03;82.96;99268.69;106860;1290;22308;-60
2022/10/30 01:03:52;;;;;;;13.20;6.20;;;;;;;13.03;82.93;99276.28;106896;1300;22116;-60
2022/10/30 01:06:19;;;;;;;14.00;6.70;;;;;;;13.03;82.69;99278.48;104915;1286;24243;-59
2022/10/30 01:08:46;;;;;;;12.40;6.60;;;;;;;13.03;82.63;99281.15;102834;1283;22468;-60
2022/10/30 01:11:13;;;;;;;11.90;6.30;;;;;;;13.01;82.58;99275.95;102706;1282;22816;-60
2022/10/30 01:13:40;;;;;;;9.70;6.10;;;;;;;13.01;82.50;99279.84;102811;1283;23915;-59
2022/10/30 01:16:33;;;;;;;10.50;6.10;;;;;;;13.00;82.38;99282.25;107009;1301;22971;-61
2022/10/30 01:19:16;;;;;;;9.00;5.50;;;;;;;12.97;82.28;99279.55;106931;1300;22217;-61
2022/10/30 01:22:07;;;;;;;11.90;5.80;;;;;;;12.97;82.28;99269.27;107014;1300;22201;-61
2022/10/30 01:25:02;;;;;;;9.50;5.70;;;;;;;12.97;82.09;99269.49;107033;1300;22123;-60
2022/10/30 01:27:54;;;;;;;14.00;5.60;;;;;;;12.98;82.04;99268.23;106866;1294;22136;-61
2022/10/30 01:30:59;;;;;;;9.60;5.80;;;;;;;12.98;81.94;99252.64;107075;1293;22120;-60
2022/10/30 01:33:49;;;;;;;12.20;5.80;;;;;;;12.97;81.91;99244.05;106558;1308;22158;-61
2022/10/30 01:36:36;;;;;;;11.30;5.40;;;;;;;12.98;81.97;99245.35;104411;1298;23903;-59
2022/10/30 01:39:11;;;;;;;11.30;6.20;;;;;;;12.98;81.97;99237.42;106205;1305;23211;-60
2022/10/30 01:41:38;;;;;;;9.60;5.70;;;;;;;12.98;81.93;99239.02;106408;1308;22181;-60
2022/10/30 01:44:11;;;;;;;15.00;5.80;;;;;;;12.96;81.74;99249.74;106495;1305;22230;-61
2022/10/30 01:46:46;;;;;;;7.50;5.40;;;;;;;12.94;81.78;99247.89;106558;1297;22159;-60
2022/10/30 01:49:31;;;;;;;10.00;5.40;;;;;;;12.94;81.90;99249.04;106505;1300;22994;-60
2022/10/30 01:52:04;;;;;;;13.40;5.60;;;;;;;12.94;81.92;99262.00;106585;1306;23320;-60
2022/10/30 01:54:46;;;;;;;8.30;4.90;;;;;;;12.93;81.83;99267.09;106446;1300;22315;-60
2022/10/30 01:57:34;;;;;;;11.40;6.70;;;;;;;12.92;81.83;99269.02;106549;1300;22294;-60
2022/10/30 02:00:09;;;;;;;13.50;5.20;;;;;;;12.91;81.70;99270.15;106355;1310;22148;-60
2022/10/30 02:02:38;;;;;;;9.60;5.60;;;;;;;12.90;81.77;99277.48;106365;1303;22027;-60
2022/10/30 02:05:12;;;;;;;10.20;5.50;;;;;;;12.89;81.85;99263.42;106488;1303;22152;-59
2022/10/30 02:07:38;;;;;;;7.40;5.10;;;;;;;12.89;81.68;99264.58;106471;1303;22251;-60
2022/10/30 02:10:06;;;;;;;10.60;5.40;;;;;;;12.87;81.73;99264.80;106612;1300;22102;-60
2022/10/30 02:12:33;;;;;;;10.40;5.20;;;;;;;12.85;81.66;99249.88;107094;1300;22839;-59
2022/10/30 02:14:59;;;;;;;12.10;5.00;;;;;;;12.86;81.72;99251.63;106861;1287;23376;-59
2022/10/30 02:17:26;;;;;;;12.60;6.30;;;;;;;12.84;81.71;99264.65;107011;1284;22205;-59
2022/10/30 02:19:53;;;;;;;11.50;6.20;;;;;;;12.83;81.68;99274.08;106949;1300;22628;-59
2022/10/30 02:22:23;;;;;;;13.00;5.20;;;;;;;12.82;81.71;99284.30;107024;1303;22275;-59
2022/10/30 02:24:51;;;;;;;9.30;5.20;;;;;;;12.81;81.72;99276.66;107026;1300;22316;-60
2022/10/30 02:27:18;;;;;;;12.30;5.30;;;;;;;12.80;81.79;99278.02;107003;1303;22490;-59
2022/10/30 02:29:45;;;;;;;11.60;6.00;;;;;;;12.79;81.83;99281.59;107046;1297;22133;-59
2022/10/30 02:32:12;;;;;;;10.60;6.50;;;;;;;12.78;81.65;99285.67;107037;1300;22117;-59
2022/10/30 02:34:39;;;;;;;10.60;5.70;;;;;;;12.77;81.59;99283.39;107011;1301;23266;-59
2022/10/30 02:37:05;;;;;;;9.40;5.40;;;;;;;12.74;81.65;99283.01;107061;1292;22188;-59
2022/10/30 02:39:32;;;;;;;7.60;5.20;;;;;;;12.73;81.53;99284.92;107058;1300;22207;-59
2022/10/30 02:42:01;;;;;;;11.00;5.60;;;;;;;12.71;81.54;99299.08;107010;1303;22158;-59
2022/10/30 02:44:27;;;;;;;8.10;4.90;;;;;;;12.70;81.60;99302.96;107133;1300;22176;-59
2022/10/30 02:46:54;;;;;;;7.70;4.80;;;;;;;12.69;81.46;99298.77;107040;1300;22191;-59
2022/10/30 02:49:21;;;;;;;12.30;5.80;;;;;;;12.66;81.63;99297.96;107033;1285;22172;-59
2022/10/30 02:51:48;;;;;;;9.30;4.90;;;;;;;12.67;81.55;99295.23;107008;1290;22120;-59
2022/10/30 02:54:14;;;;;;;8.30;5.00;;;;;;;12.65;81.62;99293.64;107045;1295;22253;-59
2022/10/30 02:56:41;;;;;;;13.40;5.50;;;;;;;12.65;81.54;99297.96;106984;1292;22127;-59
2022/10/30 02:59:08;;;;;;;8.00;4.40;;;;;;;12.63;81.64;99304.19;107045;1297;22871;-59
2022/10/30 03:01:36;;;;;;;7.90;4.80;;;;;;;12.61;81.55;99307.64;107036;1293;22134;-59
2022/10/30 03:04:03;;;;;;;11.30;4.90;;;;;;;12.59;81.57;99303.21;106976;1300;22279;-59
2022/10/30 03:06:29;;;;;;;14.70;5.60;;;;;;;12.57;81.50;99302.39;106948;1303;22125;-59
2022/10/30 03:08:56;;;;;;;12.20;5.80;;;;;;;12.55;81.49;99297.80;107051;1284;22230;-59
2022/10/30 03:11:23;;;;;;;8.50;4.70;;;;;;;12.55;81.64;99293.66;107066;1300;22174;-59
2022/10/30 03:13:52;;;;;;;10.10;5.50;;;;;;;12.57;81.71;99294.67;106956;1302;22165;-59
2022/10/30 03:16:23;;;;;;;12.20;5.70;;;;;;;12.56;81.54;99291.90;107035;1300;22135;-59
2022/10/30 03:18:51;;;;;;;10.90;4.80;;;;;;;12.55;81.70;99295.02;106980;1285;22240;-59
2022/10/30 03:21:19;;;;;;;12.20;5.80;;;;;;;12.53;81.60;99298.38;107076;1300;22227;-59
2022/10/30 03:23:46;;;;;;;10.90;5.50;;;;;;;12.52;81.61;99291.16;106273;1291;954525;-59
2022/10/30 03:27:50;;;;;;;13.60;5.80;;;;;;;12.51;81.58;99288.69;99788;1321;544995;-59
2022/10/30 03:30:17;;;;;;;15.40;5.70;;;;;;;12.47;81.65;99292.20;101471;1295;28340;-59
2022/10/30 03:32:44;;;;;;;;;;;;;;;12.45;81.81;99293.84;101566;1295;22486;-58
2022/10/30 03:35:12;;;;;;;10.40;5.00;;;;;;;12.43;81.70;99296.19;105702;1323;23098;-59
2022/10/30 03:37:39;;;;;;;14.80;5.70;;;;;;;12.40;81.82;99297.14;105997;1310;22226;-59
2022/10/30 03:40:07;;;;;;;14.20;5.10;;;;;;;12.38;81.89;99299.16;105954;1306;22559;-59
2022/10/30 03:42:38;;;;;;;8.30;5.20;;;;;;;12.36;81.94;99309.87;105487;1310;983104;-59
2022/10/30 03:45:07;;;;;;;11.70;5.20;;;;;;;12.34;81.94;99313.59;106235;1310;22146;-60
2022/10/30 03:47:34;;;;;;;9.20;4.40;;;;;;;12.34;82.13;99317.52;106213;1304;22215;-59
2022/10/30 03:50:01;;;;;;;10.80;4.90;;;;;;;12.33;82.18;99315.39;106199;1303;22148;-60
2022/10/30 03:52:28;;;;;;;8.30;4.90;;;;;;;12.33;82.24;99312.70;106215;1309;22203;-59
2022/10/30 03:54:55;;;;;;;;;;;;;;;12.34;82.20;99306.76;106799;1303;22436;-59
2022/10/30 03:57:22;;;;;;;11.90;5.00;;;;;;;12.31;81.90;99298.79;106669;1305;22184;-59
2022/10/30 04:00:06;;;;;;;6.70;4.40;;;;;;;12.32;81.65;99307.30;106669;1305;22387;-60
2022/10/30 04:02:51;;;;;;;9.40;4.40;;;;;;;12.32;81.65;99309.31;106662;1294;22205;-59
2022/10/30 04:05:19;;;;;;;8.40;4.70;;;;;;;12.31;81.36;99299.77;106674;1305;22105;-59
2022/10/30 04:07:47;;;;;;;13.60;4.70;;;;;;;12.31;81.28;99298.73;106553;1300;22290;-60
2022/10/30 04:10:14;;;;;;;7.50;3.90;;;;;;;12.30;80.89;99302.86;106624;1302;22214;-59
2022/10/30 04:12:48;;;;;;;9.20;4.50;;;;;;;12.28;80.69;99297.77;106609;1301;22803;-59
2022/10/30 04:15:15;;;;;;;8.90;4.30;;;;;;;12.27;80.55;99300.57;106675;1303;22104;-59
2022/10/30 04:17:49;;;;;;;;;;;;;;;12.25;80.36;99296.22;106703;1279;22401;-59
2022/10/30 04:20:17;;;;;;;10.10;4.40;;;;;;;12.23;80.52;99296.39;106765;1306;23394;-59
2022/10/30 04:22:44;;;;;;;13.10;4.50;;;;;;;12.22;80.46;99297.64;106751;1306;22222;-60
2022/10/30 04:25:12;;;;;;;7.10;4.10;;;;;;;12.22;80.54;99298.08;106644;1302;22128;-59
2022/10/30 04:27:42;;;;;;;7.20;4.30;;;;;;;12.23;80.39;99300.65;106625;1287;22170;-59
2022/10/30 04:30:10;;;;;;;12.80;5.30;;;;;;;12.22;79.46;99295.95;106804;1294;22313;-60
2022/10/30 04:32:47;;;;;;;11.40;4.70;;;;;;;12.22;78.92;99299.94;106630;1300;22133;-59
2022/10/30 04:35:14;;;;;;;9.70;5.30;;;;;;;12.23;79.09;99303.92;106789;1302;22111;-59
2022/10/30 04:37:42;;;;;;;10.10;5.00;;;;;;;12.23;79.24;99312.40;106735;1302;23013;-60
2022/10/30 04:40:09;;;;;;;8.90;4.00;;;;;;;12.24;79.33;99306.61;106605;1303;22127;-59
2022/10/30 04:42:47;;;;;;;11.30;4.70;;;;;;;12.24;79.12;99314.20;106643;1303;22144;-59
2022/10/30 04:45:14;;;;;;;11.10;4.00;;;;;;;12.24;78.30;99313.55;106671;1306;22976;-59
2022/10/30 04:47:41;;;;;;;7.80;3.70;;;;;;;12.22;77.44;99317.09;106594;1291;22304;-59
2022/10/30 04:50:08;;;;;;;7.80;3.90;;;;;;;12.20;77.26;99321.67;106658;1303;22133;-59
2022/10/30 04:52:35;;;;;;;6.70;3.60;;;;;;;12.19;77.48;99325.39;106681;1303;22126;-59
2022/10/30 04:55:02;;;;;;;11.70;3.80;;;;;;;12.19;77.86;99320.41;106552;1287;22146;-59
2022/10/30 04:57:30;;;;;;;7.00;3.40;;;;;;;12.20;78.05;99328.06;106629;1298;22168;-59
2022/10/30 04:59:57;;;;;;;13.60;4.00;;;;;;;12.21;78.31;99327.58;106610;1296;22375;-59
2022/10/30 05:02:24;;;;;;;8.10;4.00;;;;;;;12.20;78.38;99326.77;106523;1290;22114;-60
2022/10/30 05:04:51;;;;;;;11.20;4.00;;;;;;;12.25;78.42;99333.81;106542;1303;22138;-59
2022/10/30 05:07:18;;;;;;;;;;;;;;;12.25;77.91;99336.22;106594;1284;22393;-59
2022/10/30 05:09:45;;;;;;;6.70;3.70;;;;;;;12.24;76.93;99337.96;106615;1289;22794;-59
2022/10/30 05:12:12;;;;;;;;;;;;;;;12.21;76.80;99340.91;106570;1301;22364;-59
2022/10/30 05:14:47;;;;;;;6.60;4.10;;;;;;;12.20;76.95;99348.28;106649;1303;22261;-59
2022/10/30 05:17:14;;;;;;;10.40;3.90;;;;;;;12.19;77.03;99352.76;106703;1298;22158;-60
2022/10/30 05:19:41;;;;;;;10.20;3.60;;;;;;;12.19;77.18;99350.08;106695;1302;22182;-59
2022/10/30 05:22:09;;;;;;;7.30;2.80;;;;;;;12.19;77.09;99352.92;106620;1302;22235;-59
2022/10/30 05:24:36;;;;;;;12.10;3.10;;;;;;;12.17;75.65;99358.60;106594;1303;22996;-59
2022/10/30 05:27:03;;;;;;;9.70;3.40;;;;;;;12.19;74.72;99360.73;106607;1297;22325;-59
2022/10/30 05:29:30;;;;;;;22.30;9.60;;;;;;;12.18;74.06;99361.44;106639;1302;22145;-59
2022/10/30 05:31:57;;;;;;;22.60;8.10;;;;;;;12.17;73.42;99361.48;106567;1302;22142;-59
2022/10/30 05:34:34;;;;;;;12.80;2.90;;;;;;;12.16;72.98;99369.14;106629;1302;23063;-59
2022/10/30 05:37:01;;;;;;;7.80;2.70;;;;;;;12.16;72.56;99367.22;106606;1297;22336;-59
2022/10/30 05:39:28;;;;;;;;;;;;;;;12.15;72.80;99369.30;106647;1281;22389;-59
2022/10/30 05:41:55;;;;;;;7.00;2.80;;;;;;;12.15;72.62;99373.77;106619;1303;22914;-59
2022/10/30 05:44:23;;;;;;;10.20;3.20;;;;;;;12.15;72.92;99379.61;106622;1302;22144;-59
2022/10/30 05:47:10;;;;;;;11.30;3.20;;;;;;;12.15;72.58;99388.73;106601;1295;22178;-59
2022/10/30 05:49:37;;;;;;;6.40;2.70;;;;;;;12.13;72.51;99392.02;106637;1297;22218;-59
2022/10/30 05:52:08;;;;;;;8.40;3.90;;;;;;;12.12;71.65;99405.08;106622;1305;22132;-59
2022/10/30 05:54:35;;;;;;;6.80;2.80;;;;;;;12.10;71.36;99397.60;106585;1281;22408;-60
2022/10/30 05:57:08;;;;;;;10.50;2.70;;;;;;;12.07;71.56;99399.40;106655;1305;22182;-60
2022/10/30 05:59:36;;;;;;;5.10;2.80;;;;;;;12.06;71.55;99402.67;106575;1292;22158;-60
2022/10/30 06:02:03;;;;;;;9.30;3.50;;;;;;;12.07;71.58;99401.20;106691;1297;23097;-60
2022/10/30 06:04:30;;;;;;;5.90;2.40;;;;;;;12.09;71.52;99409.08;106563;1306;22225;-60
2022/10/30 06:06:59;;;;;;;9.60;3.50;;;;;;;12.09;71.78;99406.72;106640;1302;22168;-60
2022/10/30 06:09:25;;;;;;;;;;;;;;;12.10;72.02;99414.91;106591;1299;22652;-60
2022/10/30 06:12:04;;;;;;;;;;;;;;;12.11;72.15;99413.08;106692;1303;23468;-60
2022/10/30 06:14:41;;;;;;;6.40;2.90;;;;;;;12.12;71.95;99412.63;106674;1302;22247;-60
2022/10/30 06:17:08;;;;;;;;;;;;;;;12.11;71.59;99409.69;106666;1299;22387;-60
2022/10/30 06:19:53;;;;;;;5.20;2.50;;;;;;;12.09;71.48;99416.39;106661;1289;22145;-59
2022/10/30 06:22:40;;;;;;;19.40;4.80;;;;;;;12.07;71.24;99419.39;106588;1290;22135;-60
2022/10/30 06:25:14;;;;;;;22.00;6.50;;;;;;;12.06;70.88;99414.30;106637;1290;22134;-59
2022/10/30 06:28:04;;;;;;;8.70;3.60;;;;;;;12.06;70.52;99413.33;106583;1302;22106;-59
2022/10/30 06:30:32;;;;;;;9.20;2.70;;;;;;;12.05;70.02;99411.29;106604;1302;23617;-59
2022/10/30 06:33:00;;;;;;;8.40;2.90;;;;;;;12.02;69.98;99409.87;106602;1300;22239;-59
2022/10/30 06:35:27;;;;;;;12.00;4.60;;;;;;;12.02;70.15;99409.91;106556;1302;22430;-59
2022/10/30 06:37:55;;;;;;;15.90;3.00;;;;;;;12.02;70.18;99409.97;106596;1303;22111;-60
2022/10/30 06:40:23;;;;;;;13.10;3.50;;;;;;;12.04;70.08;99408.67;106568;1302;22287;-59
2022/10/30 06:43:06;;;;;;;5.90;2.40;;;;;;;12.06;70.18;99414.95;106586;1288;22162;-60
2022/10/30 06:45:40;;;;;;;11.00;2.40;;;;;;;12.07;69.99;99415.40;106623;1302;22139;-60
2022/10/30 06:48:08;;;;;;;4.40;2.10;;;;;;;12.08;69.79;99418.20;106588;1302;22154;-60
2022/10/30 06:50:39;;;;;;;8.70;2.20;;;;;;;12.07;69.84;99416.43;106558;1302;22193;-60
2022/10/30 06:53:06;;;;;;;8.50;3.10;;;;;;;12.07;70.00;99417.09;106621;1303;22933;-60
2022/10/30 06:55:33;;;;;;;11.40;3.90;;;;;;;12.06;70.36;99414.64;105847;1307;22503;-59
2022/10/30 06:58:17;;;;;;;8.10;3.10;;;;;;;12.06;70.50;99416.98;102392;1290;24207;-60
2022/10/30 07:01:07;;;;;;;9.20;3.50;;;;;;;12.02;70.26;99412.21;102384;1295;22684;-59
2022/10/30 07:03:52;;;;;;;25.40;8.20;;;;;;;12.04;70.41;99423.59;102764;1289;25413;-61
2022/10/30 07:06:19;;;;;;;18.90;5.10;;;;;;;12.02;70.48;99422.70;102369;1290;25356;-59
2022/10/30 07:08:46;;;;;;;16.80;4.80;;;;;;;11.99;70.49;99424.38;102364;1297;24322;-59
2022/10/30 07:11:13;;;;;;;6.40;2.80;;;;;;;11.97;70.72;99430.23;102250;1283;27689;-61
2022/10/30 07:13:57;;;;;;;22.20;7.00;;;;;;;11.96;71.03;99430.89;102374;1293;24337;-60
2022/10/30 07:16:44;;;;;;;11.30;3.70;;;;;;;11.94;70.77;99431.05;102422;1296;25544;-63
2022/10/30 07:19:11;;;;;;;7.20;2.50;;;;;;;11.92;70.60;99430.27;102476;1298;25606;-59
2022/10/30 07:21:38;;;;;;;;;;;;;;;11.90;70.50;99426.11;102427;1287;25376;-60
2022/10/30 07:24:05;;;;;;;7.20;2.20;;;;;;;11.88;70.74;99425.77;102387;1299;22661;-60
2022/10/30 07:26:36;;;;;;;5.90;2.00;;;;;;;11.88;70.59;99421.30;106446;1302;22189;-61
2022/10/30 07:29:27;;;;;;;4.00;2.10;;;;;;;11.89;70.75;99418.91;106658;1297;22224;-61
2022/10/30 07:32:13;;;;;;;10.60;2.50;;;;;;;11.91;70.66;99421.30;106544;1290;22285;-61
2022/10/30 07:34:48;;;;;;;6.30;2.40;;;;;;;11.92;70.50;99418.86;106632;1302;22202;-60
2022/10/30 07:37:21;;;;;;;5.10;2.20;;;;;;;11.93;70.18;99417.01;106767;1302;22204;-61
2022/10/30 07:39:56;;;;;;;5.10;2.10;;;;;;;11.93;70.30;99423.02;106591;1276;23303;-61
2022/10/30 07:42:42;;;;;;;4.90;2.00;;;;;;;11.94;70.07;99418.39;106640;1292;22130;-60
2022/10/30 07:45:25;;;;;;;8.80;2.50;;;;;;;11.93;69.37;99416.20;106626;1302;22312;-60
2022/10/30 07:48:14;;;;;;;5.20;1.90;;;;;;;11.93;69.60;99415.70;106737;1297;22903;-60
2022/10/30 07:50:51;;;;;;;6.40;1.80;;;;;;;11.94;69.25;99420.84;106641;1303;22144;-59
2022/10/30 07:53:18;;;;;;;7.90;2.10;;;;;;;11.92;68.79;99415.74;106587;1298;22137;-59
2022/10/30 07:55:46;;;;;;;4.60;1.50;;;;;;;11.93;68.45;99419.41;106567;1303;23044;-59
2022/10/30 07:58:12;;;;;;;;;;;;;;;11.92;68.18;99416.84;106676;1296;22372;-60
2022/10/30 08:00:59;;;;;;;7.10;1.60;;;;;;;11.90;68.40;99411.32;106661;1297;22128;-60
2022/10/30 08:03:28;;;;;;;3.90;1.50;;;;;;;11.90;68.56;99416.83;106636;1304;22857;-60
2022/10/30 08:06:10;;;;;;;6.60;1.90;;;;;;;11.91;68.92;99417.44;106634;1302;22141;-61
2022/10/30 08:08:37;;;;;;;4.60;1.60;;;;;;;11.93;69.03;99419.80;106576;1302;22355;-60
2022/10/30 08:11:27;;;;;;;7.20;3.30;;;;;;;11.97;68.95;99421.05;106599;1292;22120;-59
2022/10/30 08:13:56;;;;;;;5.70;1.60;;;;;;;11.99;69.19;99420.98;106667;1304;22177;-60
2022/10/30 08:16:23;;;;;;;6.90;1.90;;;;;;;12.01;68.63;99427.61;106642;1302;22187;-60
2022/10/30 08:18:50;;;;;;;22.50;2.50;;;;;;;11.99;68.45;99424.32;106620;1302;22233;-60
2022/10/30 08:21:18;;;;;;;5.20;2.50;;;;;;;11.97;68.64;99429.24;106605;1302;22990;-60
2022/10/30 08:23:54;;;;;;;4.70;1.90;;;;;;;11.97;69.00;99430.67;106632;1303;22247;-60
2022/10/30 08:26:21;;;;;;;5.80;2.00;;;;;;;11.98;68.86;99430.77;106531;1298;22113;-60
2022/10/30 08:28:48;;;;;;;27.70;13.30;;;;;;;11.99;69.12;99431.70;106664;1305;22231;-59
2022/10/30 08:31:15;;;;;;;8.80;3.90;;;;;;;12.01;69.08;99432.69;106568;1305;22284;-59
2022/10/30 08:34:00;;;;;;;5.10;1.90;;;;;;;12.04;68.47;99434.67;106637;1289;22162;-59
2022/10/30 08:36:50;;;;;;;7.60;2.00;;;;;;;12.03;68.40;99432.91;103609;1294;25532;-59
2022/10/30 08:39:17;;;;;;;6.10;2.10;;;;;;;12.03;68.75;99434.98;102322;1291;24861;-61
2022/10/30 08:42:11;;;;;;;4.30;1.80;;;;;;;12.05;68.98;99439.91;102314;1283;24447;-58
2022/10/30 08:44:41;;;;;;;7.80;2.70;;;;;;;12.08;68.81;99439.11;106665;1304;23032;-61
2022/10/30 08:47:26;;;;;;;5.90;1.60;;;;;;;12.09;68.81;99442.23;106690;1285;22842;-60
2022/10/30 08:49:53;;;;;;;;;;;;;;;12.10;68.25;99444.63;106602;1284;22383;-59
2022/10/30 08:52:21;;;;;;;5.10;2.10;;;;;;;12.06;67.75;99442.17;106593;1305;23057;-59
2022/10/30 08:54:53;;;;;;;15.70;6.40;;;;;;;12.08;67.46;99451.17;106603;1289;22138;-59
2022/10/30 08:57:22;;;;;;;11.80;6.50;;;;;;;12.04;66.91;99447.89;106524;1305;22570;-59
2022/10/30 08:59:49;;;;;;;19.70;7.80;;;;;;;12.02;67.50;99451.20;106593;1305;22164;-59
2022/10/30 09:02:42;;;;;;;9.90;4.00;;;;;;;12.03;67.43;99446.84;106420;1297;22133;-59
2022/10/30 09:05:48;;;;;;;10.10;5.90;;;;;;;12.03;67.56;99446.13;106566;1304;22400;-59
2022/10/30 09:08:33;;;;;;;7.20;3.00;;;;;;;12.06;67.70;99445.11;106677;1297;22984;-59
2022/10/30 09:10:59;;;;;;;;;;;;;;;12.09;67.56;99440.53;106642;1305;22423;-59
2022/10/30 09:13:27;;;;;;;6.80;2.00;;;;;;;12.12;67.71;99441.73;106548;1299;22791;-59
2022/10/30 09:15:58;;;;;;;6.10;1.60;;;;;;;12.14;67.71;99440.03;106539;1305;22238;-59
2022/10/30 09:18:26;;;;;;;5.10;2.00;;;;;;;12.16;67.59;99440.04;106476;1300;22198;-61
2022/10/30 09:20:53;;;;;;;6.70;3.10;;;;;;;12.18;67.34;99437.43;106560;1299;22247;-61
2022/10/30 09:23:20;;;;;;;3.70;1.60;;;;;;;12.20;67.56;99439.30;106555;1299;22133;-60
2022/10/30 09:25:50;;;;;;;12.60;2.90;;;;;;;12.22;67.28;99439.30;106548;1284;22178;-61
2022/10/30 09:28:43;;;;;;;7.70;1.90;;;;;;;12.22;67.16;99435.14;106693;1303;22251;-60
2022/10/30 09:31:33;;;;;;;6.40;3.20;;;;;;;12.21;67.40;99429.95;106654;1287;22216;-60
2022/10/30 09:34:02;;;;;;;5.70;1.80;;;;;;;12.23;67.42;99431.44;106587;1283;22338;-61
2022/10/30 09:36:42;;;;;;;4.10;2.10;;;;;;;12.24;67.39;99437.72;106514;1303;22759;-61
2022/10/30 09:39:10;;;;;;;4.30;1.70;;;;;;;12.24;67.22;99435.27;106529;1306;22183;-61
2022/10/30 09:42:07;;;;;;;5.50;2.20;;;;;;;12.22;67.36;99428.98;106577;1289;22219;-61
2022/10/30 09:45:14;;;;;;;4.50;1.50;;;;;;;12.26;67.16;99434.64;106606;1295;22173;-61
2022/10/30 09:48:23;;;;;;;6.20;1.80;;;;;;;12.29;67.36;99437.77;106600;1304;22167;-62
2022/10/30 09:51:05;;;;;;;3.60;1.70;;;;;;;12.32;67.48;99435.48;106546;1301;22220;-61
2022/10/30 09:53:48;;;;;;;4.10;1.70;;;;;;;12.34;67.77;99433.46;106551;1305;23017;-61
2022/10/30 09:56:34;;;;;;;8.50;2.10;;;;;;;12.38;67.43;99433.70;106538;1305;22223;-62
2022/10/30 09:59:24;;;;;;;16.50;8.50;;;;;;;12.41;67.14;99431.07;106615;1305;22187;-62
2022/10/30 10:02:00;;;;;;;9.80;3.00;;;;;;;12.41;66.95;99427.41;106645;1297;22260;-61
2022/10/30 10:04:34;;;;;;;4.10;2.30;;;;;;;12.42;67.04;99425.70;106435;1297;23465;-61
2022/10/30 10:07:36;;;;;;;8.40;2.70;;;;;;;12.45;66.72;99424.94;106528;1305;22266;-61
2022/10/30 10:10:37;;;;;;;8.40;2.30;;;;;;;12.47;66.53;99423.47;106633;1298;22306;-60
2022/10/30 10:13:26;;;;;;;4.10;1.70;;;;;;;12.49;66.34;99427.25;106556;1305;22278;-61
2022/10/30 10:16:14;;;;;;;8.40;2.60;;;;;;;12.51;66.39;99427.91;106583;1297;22205;-61
2022/10/30 10:18:49;;;;;;;5.60;1.70;;;;;;;12.50;66.19;99429.66;106539;1287;22294;-60
2022/10/30 10:21:20;;;;;;;7.30;1.90;;;;;;;12.48;65.86;99425.44;106586;1303;22173;-61
2022/10/30 10:23:48;;;;;;;8.00;2.50;;;;;;;12.43;65.85;99427.40;106521;1305;22238;-61
2022/10/30 10:26:22;;;;;;;10.10;2.80;;;;;;;12.41;66.37;99429.81;106729;1303;23069;-61
2022/10/30 10:28:54;;;;;;;10.60;4.40;;;;;;;12.41;66.62;99424.73;106777;1303;22203;-61
2022/10/30 10:31:33;;;;;;;11.70;5.00;;;;;;;12.42;66.69;99424.27;106654;1297;22122;-61
2022/10/30 10:34:22;;;;;;;9.00;3.50;;;;;;;12.44;66.39;99425.81;106764;1296;22251;-61
2022/10/30 10:37:27;;;;;;;15.10;6.10;;;;;;;12.44;66.47;99422.15;103472;1281;22506;-55
2022/10/30 10:40:12;;;;;;;8.70;4.00;;;;;;;12.44;66.71;99423.24;106489;1307;22204;-55
2022/10/30 10:42:44;;;;;;;8.90;3.80;;;;;;;12.45;66.68;99422.59;106750;1280;22138;-55
2022/10/30 10:45:16;;;;;;;7.20;3.00;;;;;;;12.47;66.44;99422.60;106649;1287;22148;-55
2022/10/30 10:48:21;;;;;;;14.20;8.30;;;;;;;12.48;66.11;99418.34;106796;1300;22918;-56
2022/10/30 10:50:50;;;;;;;11.70;3.50;;;;;;;12.50;66.29;99417.14;106796;1303;22188;-59
2022/10/30 10:53:41;;;;;;;7.00;2.40;;;;;;;12.50;66.48;99416.27;106597;1303;23184;-60
2022/10/30 10:56:08;;;;;;;4.50;2.00;;;;;;;12.51;66.37;99410.80;106816;1288;22990;-55
2022/10/30 10:58:48;;;;;;;10.50;4.80;;;;;;;12.52;66.51;99411.08;106764;1303;22957;-55
2022/10/30 11:01:18;;;;;;;13.60;6.30;;;;;;;12.54;66.26;99409.27;106777;1297;22177;-55
2022/10/30 11:03:54;;;;;;;5.60;3.00;;;;;;;12.54;65.95;99406.43;106667;1306;22159;-58
2022/10/30 11:06:25;;;;;;;6.30;2.80;;;;;;;12.55;66.02;99405.16;106842;1303;22182;-55
2022/10/30 11:08:53;;;;;;;7.80;3.70;;;;;;;12.57;66.14;99407.23;106644;1297;22249;-56
2022/10/30 11:11:20;;;;;;;63.40;35.10;;;;;;;12.58;65.83;99395.31;106780;1287;22300;-56
2022/10/30 11:13:47;;;;;;;13.50;5.80;;;;;;;12.60;65.50;99393.19;106820;1298;22187;-52
2022/10/30 11:16:39;;;;;;;9.00;3.60;;;;;;;12.62;65.38;99387.77;106713;1295;22241;-61
2022/10/30 11:19:07;;;;;;;40.30;22.50;;;;;;;12.64;65.38;99386.41;106681;1303;23191;-56
2022/10/30 11:21:38;;;;;;;9.30;4.20;;;;;;;12.68;65.68;99380.63;106818;1303;22150;-57
2022/10/30 11:24:30;;;;;;;7.90;3.30;;;;;;;12.71;65.02;99385.41;106778;1303;22107;-58
2022/10/30 11:27:15;;;;;;;5.80;2.40;;;;;;;12.74;65.17;99383.27;106693;1305;22209;-59
2022/10/30 11:29:56;;;;;;;7.30;2.20;;;;;;;12.76;65.01;99383.39;106683;1281;22409;-61
2022/10/30 11:32:26;;;;;;;8.40;2.80;;;;;;;12.76;64.91;99374.59;106663;1289;22257;-60
2022/10/30 11:35:00;;;;;;;5.20;1.90;;;;;;;12.76;64.85;99375.35;106756;1287;23007;-60
2022/10/30 11:37:29;;;;;;;4.10;1.70;;;;;;;12.76;65.06;99369.55;106781;1276;22993;-60
2022/10/30 11:40:07;;;;;;;6.60;2.70;;;;;;;12.76;65.24;99364.26;106735;1295;22141;-59
2022/10/30 11:42:33;;;;;;;4.70;2.50;;;;;;;12.76;65.32;99358.02;106756;1287;22232;-60
2022/10/30 11:45:00;;;;;;;7.70;3.40;;;;;;;12.76;65.33;99359.83;106796;1286;22223;-60
2022/10/30 11:47:35;;;;;;;5.60;2.90;;;;;;;12.77;65.54;99357.52;106611;1290;22138;-60
2022/10/30 11:50:06;;;;;;;6.40;2.40;;;;;;;12.79;65.45;99364.48;106656;1283;22156;-59
2022/10/30 11:52:39;;;;;;;6.60;2.30;;;;;;;12.80;65.29;99365.02;106580;1276;22204;-60
2022/10/30 11:55:19;;;;;;;7.40;1.90;;;;;;;12.79;65.32;99364.91;106787;1295;22231;-58